sensor_id;sensor_type;location;lat;lon;timestamp;P1;durP1;ratioP1;P2;durP2;ratioP2
14019;SDS011;7085;51.428;6.796;2022-12-18T00:01:59;6.90;;;5.53;;
14019;SDS011;7085;51.428;6.796;2022-12-18T00:04:26;10.97;;;6.40;;
14019;SDS011;7085;51.428;6.796;2022-12-18T00:06:54;9.90;;;6.30;;
14019;SDS011;7085;51.428;6.796;2022-12-18T00:09:21;10.03;;;5.97;;
14019;SDS011;7085;51.428;6.796;2022-12-18T00:11:48;10.67;;;6.27;;
14019;SDS011;7085;51.428;6.796;2022-12-18T00:14:15;8.80;;;5.73;;
14019;SDS011;7085;51.428;6.796;2022-12-18T00:16:45;10.10;;;6.17;;
14019;SDS011;7085;51.428;6.796;2022-12-18T00:19:13;10.50;;;6.07;;
14019;SDS011;7085;51.428;6.796;2022-12-18T00:21:41;8.53;;;5.67;;
14019;SDS011;7085;51.428;6.796;2022-12-18T00:24:08;7.63;;;5.03;;
14019;SDS011;7085;51.428;6.796;2022-12-18T00:26:35;8.17;;;5.53;;
14019;SDS011;7085;51.428;6.796;2022-12-18T00:29:04;9.13;;;5.23;;
14019;SDS011;7085;51.428;6.796;2022-12-18T00:31:31;7.77;;;4.90;;
14019;SDS011;7085;51.428;6.796;2022-12-18T00:33:59;11.10;;;5.33;;
14019;SDS011;7085;51.428;6.796;2022-12-18T00:36:29;9.43;;;5.50;;
14019;SDS011;7085;51.428;6.796;2022-12-18T00:38:56;6.60;;;5.60;;
14019;SDS011;7085;51.428;6.796;2022-12-18T00:41:23;7.83;;;6.00;;
14019;SDS011;7085;51.428;6.796;2022-12-18T00:44:09;7.80;;;4.53;;
14019;SDS011;7085;51.428;6.796;2022-12-18T00:46:37;7.80;;;5.50;;
14019;SDS011;7085;51.428;6.796;2022-12-18T00:49:04;7.87;;;4.83;;
14019;SDS011;7085;51.428;6.796;2022-12-18T00:51:32;7.50;;;4.77;;
14019;SDS011;7085;51.428;6.796;2022-12-18T00:54:00;10.07;;;5.07;;
14019;SDS011;7085;51.428;6.796;2022-12-18T00:56:27;7.53;;;4.97;;
14019;SDS011;7085;51.428;6.796;2022-12-18T00:58:54;9.23;;;4.80;;
14019;SDS011;7085;51.428;6.796;2022-12-18T01:01:21;6.67;;;4.57;;
14019;SDS011;7085;51.428;6.796;2022-12-18T01:03:48;11.87;;;5.33;;
14019;SDS011;7085;51.428;6.796;2022-12-18T01:06:16;6.53;;;4.93;;
14019;SDS011;7085;51.428;6.796;2022-12-18T01:08:44;7.50;;;4.43;;
14019;SDS011;7085;51.428;6.796;2022-12-18T01:11:12;7.03;;;4.07;;
14019;SDS011;7085;51.428;6.796;2022-12-18T01:13:40;8.53;;;4.33;;
14019;SDS011;7085;51.428;6.796;2022-12-18T01:16:07;7.70;;;4.33;;
14019;SDS011;7085;51.428;6.796;2022-12-18T01:18:34;5.30;;;3.93;;
14019;SDS011;7085;51.428;6.796;2022-12-18T01:21:05;7.17;;;4.47;;
14019;SDS011;7085;51.428;6.796;2022-12-18T01:23:32;9.30;;;4.23;;
14019;SDS011;7085;51.428;6.796;2022-12-18T01:26:04;7.40;;;5.03;;
14019;SDS011;7085;51.428;6.796;2022-12-18T01:28:32;6.80;;;3.93;;
14019;SDS011;7085;51.428;6.796;2022-12-18T01:31:08;5.03;;;4.20;;
14019;SDS011;7085;51.428;6.796;2022-12-18T01:33:35;8.17;;;4.70;;
14019;SDS011;7085;51.428;6.796;2022-12-18T01:36:02;7.67;;;4.47;;
14019;SDS011;7085;51.428;6.796;2022-12-18T01:38:30;9.97;;;4.70;;
14019;SDS011;7085;51.428;6.796;2022-12-18T01:40:57;5.80;;;3.73;;
14019;SDS011;7085;51.428;6.796;2022-12-18T01:46:07;8.13;;;4.53;;
14019;SDS011;7085;51.428;6.796;2022-12-18T01:48:35;9.30;;;3.80;;
14019;SDS011;7085;51.428;6.796;2022-12-18T01:51:02;8.03;;;3.77;;
14019;SDS011;7085;51.428;6.796;2022-12-18T01:53:29;7.90;;;4.20;;
14019;SDS011;7085;51.428;6.796;2022-12-18T01:55:56;7.53;;;4.27;;
14019;SDS011;7085;51.428;6.796;2022-12-18T01:58:25;6.43;;;3.80;;
14019;SDS011;7085;51.428;6.796;2022-12-18T02:00:54;8.37;;;4.40;;
14019;SDS011;7085;51.428;6.796;2022-12-18T02:03:23;9.00;;;4.47;;
14019;SDS011;7085;51.428;6.796;2022-12-18T02:05:51;6.73;;;4.70;;
14019;SDS011;7085;51.428;6.796;2022-12-18T02:08:25;4.37;;;3.93;;
14019;SDS011;7085;51.428;6.796;2022-12-18T02:10:54;7.17;;;4.23;;
14019;SDS011;7085;51.428;6.796;2022-12-18T02:13:25;8.60;;;4.90;;
14019;SDS011;7085;51.428;6.796;2022-12-18T02:15:56;9.80;;;4.70;;
14019;SDS011;7085;51.428;6.796;2022-12-18T02:18:29;5.70;;;3.57;;
14019;SDS011;7085;51.428;6.796;2022-12-18T02:20:59;6.43;;;4.37;;
14019;SDS011;7085;51.428;6.796;2022-12-18T02:23:37;8.93;;;4.50;;
14019;SDS011;7085;51.428;6.796;2022-12-18T02:26:11;7.93;;;4.23;;
14019;SDS011;7085;51.428;6.796;2022-12-18T02:28:41;6.87;;;3.83;;
14019;SDS011;7085;51.428;6.796;2022-12-18T02:31:11;8.33;;;4.80;;
14019;SDS011;7085;51.428;6.796;2022-12-18T02:33:40;8.23;;;4.37;;
14019;SDS011;7085;51.428;6.796;2022-12-18T02:36:07;6.80;;;4.23;;
14019;SDS011;7085;51.428;6.796;2022-12-18T02:38:35;8.97;;;4.37;;
14019;SDS011;7085;51.428;6.796;2022-12-18T02:41:03;4.43;;;3.73;;
14019;SDS011;7085;51.428;6.796;2022-12-18T02:43:32;6.80;;;4.03;;
14019;SDS011;7085;51.428;6.796;2022-12-18T02:46:00;6.07;;;4.23;;
14019;SDS011;7085;51.428;6.796;2022-12-18T02:48:28;9.30;;;4.47;;
14019;SDS011;7085;51.428;6.796;2022-12-18T02:50:57;7.43;;;4.30;;
14019;SDS011;7085;51.428;6.796;2022-12-18T02:53:27;8.03;;;4.90;;
14019;SDS011;7085;51.428;6.796;2022-12-18T02:55:57;8.40;;;4.43;;
14019;SDS011;7085;51.428;6.796;2022-12-18T02:58:26;7.83;;;3.97;;
14019;SDS011;7085;51.428;6.796;2022-12-18T03:00:58;6.27;;;4.33;;
14019;SDS011;7085;51.428;6.796;2022-12-18T03:03:36;8.20;;;4.20;;
14019;SDS011;7085;51.428;6.796;2022-12-18T03:06:06;6.47;;;4.70;;
14019;SDS011;7085;51.428;6.796;2022-12-18T03:08:36;6.20;;;4.40;;
14019;SDS011;7085;51.428;6.796;2022-12-18T03:11:05;7.17;;;5.07;;
14019;SDS011;7085;51.428;6.796;2022-12-18T03:13:34;6.07;;;4.13;;
14019;SDS011;7085;51.428;6.796;2022-12-18T03:16:04;8.50;;;4.97;;
14019;SDS011;7085;51.428;6.796;2022-12-18T03:18:33;7.27;;;5.07;;
14019;SDS011;7085;51.428;6.796;2022-12-18T03:21:02;7.93;;;4.90;;
14019;SDS011;7085;51.428;6.796;2022-12-18T03:23:32;7.30;;;4.97;;
14019;SDS011;7085;51.428;6.796;2022-12-18T03:26:01;8.33;;;4.83;;
14019;SDS011;7085;51.428;6.796;2022-12-18T03:28:30;8.43;;;4.77;;
14019;SDS011;7085;51.428;6.796;2022-12-18T03:30:59;10.43;;;4.73;;
14019;SDS011;7085;51.428;6.796;2022-12-18T03:33:29;7.57;;;4.60;;
14019;SDS011;7085;51.428;6.796;2022-12-18T03:35:58;5.07;;;3.73;;
14019;SDS011;7085;51.428;6.796;2022-12-18T03:38:25;7.63;;;4.43;;
14019;SDS011;7085;51.428;6.796;2022-12-18T03:40:56;7.53;;;3.60;;
14019;SDS011;7085;51.428;6.796;2022-12-18T03:43:29;4.80;;;3.93;;
14019;SDS011;7085;51.428;6.796;2022-12-18T03:46:00;8.13;;;4.57;;
14019;SDS011;7085;51.428;6.796;2022-12-18T03:48:31;5.93;;;4.20;;
14019;SDS011;7085;51.428;6.796;2022-12-18T03:51:01;4.33;;;3.20;;
14019;SDS011;7085;51.428;6.796;2022-12-18T03:53:32;4.57;;;3.47;;
14019;SDS011;7085;51.428;6.796;2022-12-18T03:56:02;6.80;;;3.70;;
14019;SDS011;7085;51.428;6.796;2022-12-18T03:58:31;6.73;;;4.20;;
14019;SDS011;7085;51.428;6.796;2022-12-18T04:01:00;6.57;;;3.77;;
14019;SDS011;7085;51.428;6.796;2022-12-18T04:03:28;5.53;;;4.20;;
14019;SDS011;7085;51.428;6.796;2022-12-18T04:05:58;7.50;;;3.80;;
14019;SDS011;7085;51.428;6.796;2022-12-18T04:08:26;6.23;;;3.67;;
14019;SDS011;7085;51.428;6.796;2022-12-18T04:10:54;8.43;;;4.57;;
14019;SDS011;7085;51.428;6.796;2022-12-18T04:13:21;5.53;;;3.97;;
14019;SDS011;7085;51.428;6.796;2022-12-18T04:15:49;5.77;;;3.83;;
14019;SDS011;7085;51.428;6.796;2022-12-18T04:18:16;7.33;;;4.43;;
14019;SDS011;7085;51.428;6.796;2022-12-18T04:20:43;7.37;;;4.17;;
14019;SDS011;7085;51.428;6.796;2022-12-18T04:23:11;7.07;;;4.20;;
14019;SDS011;7085;51.428;6.796;2022-12-18T04:25:38;6.77;;;4.40;;
14019;SDS011;7085;51.428;6.796;2022-12-18T04:28:05;5.23;;;3.70;;
14019;SDS011;7085;51.428;6.796;2022-12-18T04:30:32;5.53;;;4.27;;
14019;SDS011;7085;51.428;6.796;2022-12-18T04:32:59;4.87;;;3.40;;
14019;SDS011;7085;51.428;6.796;2022-12-18T04:35:26;4.77;;;3.53;;
14019;SDS011;7085;51.428;6.796;2022-12-18T04:37:53;5.20;;;3.93;;
14019;SDS011;7085;51.428;6.796;2022-12-18T04:40:22;4.07;;;3.20;;
14019;SDS011;7085;51.428;6.796;2022-12-18T04:42:49;4.73;;;3.00;;
14019;SDS011;7085;51.428;6.796;2022-12-18T04:45:16;6.93;;;4.03;;
14019;SDS011;7085;51.428;6.796;2022-12-18T04:47:43;4.73;;;3.30;;
14019;SDS011;7085;51.428;6.796;2022-12-18T04:50:10;6.23;;;3.80;;
14019;SDS011;7085;51.428;6.796;2022-12-18T04:52:37;7.63;;;3.67;;
14019;SDS011;7085;51.428;6.796;2022-12-18T04:55:04;7.27;;;4.17;;
14019;SDS011;7085;51.428;6.796;2022-12-18T04:57:33;5.43;;;3.00;;
14019;SDS011;7085;51.428;6.796;2022-12-18T05:00:00;6.30;;;3.73;;
14019;SDS011;7085;51.428;6.796;2022-12-18T05:02:27;6.03;;;3.70;;
14019;SDS011;7085;51.428;6.796;2022-12-18T05:04:54;5.80;;;3.90;;
14019;SDS011;7085;51.428;6.796;2022-12-18T05:07:21;6.67;;;3.73;;
14019;SDS011;7085;51.428;6.796;2022-12-18T05:09:48;5.33;;;3.90;;
14019;SDS011;7085;51.428;6.796;2022-12-18T05:12:15;4.57;;;3.10;;
14019;SDS011;7085;51.428;6.796;2022-12-18T05:14:43;6.10;;;3.50;;
14019;SDS011;7085;51.428;6.796;2022-12-18T05:17:10;6.10;;;3.60;;
14019;SDS011;7085;51.428;6.796;2022-12-18T05:19:37;5.87;;;4.00;;
14019;SDS011;7085;51.428;6.796;2022-12-18T05:22:05;5.37;;;3.87;;
14019;SDS011;7085;51.428;6.796;2022-12-18T05:24:32;5.23;;;3.93;;
14019;SDS011;7085;51.428;6.796;2022-12-18T05:26:59;6.97;;;3.87;;
14019;SDS011;7085;51.428;6.796;2022-12-18T05:29:26;4.60;;;3.60;;
14019;SDS011;7085;51.428;6.796;2022-12-18T05:31:54;9.60;;;3.50;;
14019;SDS011;7085;51.428;6.796;2022-12-18T05:34:21;6.17;;;3.57;;
14019;SDS011;7085;51.428;6.796;2022-12-18T05:36:48;5.40;;;3.67;;
14019;SDS011;7085;51.428;6.796;2022-12-18T05:39:15;5.23;;;3.57;;
14019;SDS011;7085;51.428;6.796;2022-12-18T05:41:42;8.87;;;3.97;;
14019;SDS011;7085;51.428;6.796;2022-12-18T05:44:09;4.57;;;3.53;;
14019;SDS011;7085;51.428;6.796;2022-12-18T05:46:36;6.00;;;3.87;;
14019;SDS011;7085;51.428;6.796;2022-12-18T05:49:05;4.80;;;3.97;;
14019;SDS011;7085;51.428;6.796;2022-12-18T05:51:32;5.27;;;3.57;;
14019;SDS011;7085;51.428;6.796;2022-12-18T05:53:59;4.90;;;3.50;;
14019;SDS011;7085;51.428;6.796;2022-12-18T05:56:26;6.23;;;3.30;;
14019;SDS011;7085;51.428;6.796;2022-12-18T05:58:53;5.10;;;3.37;;
14019;SDS011;7085;51.428;6.796;2022-12-18T06:01:21;4.97;;;4.20;;
14019;SDS011;7085;51.428;6.796;2022-12-18T06:03:48;4.47;;;3.27;;
14019;SDS011;7085;51.428;6.796;2022-12-18T06:06:17;6.57;;;4.10;;
14019;SDS011;7085;51.428;6.796;2022-12-18T06:08:45;4.33;;;2.43;;
14019;SDS011;7085;51.428;6.796;2022-12-18T06:11:12;5.17;;;4.00;;
14019;SDS011;7085;51.428;6.796;2022-12-18T06:13:39;5.63;;;3.73;;
14019;SDS011;7085;51.428;6.796;2022-12-18T06:16:07;5.17;;;3.43;;
14019;SDS011;7085;51.428;6.796;2022-12-18T06:18:34;4.33;;;3.20;;
14019;SDS011;7085;51.428;6.796;2022-12-18T06:21:01;4.07;;;3.20;;
14019;SDS011;7085;51.428;6.796;2022-12-18T06:23:29;4.83;;;3.57;;
14019;SDS011;7085;51.428;6.796;2022-12-18T06:25:56;6.50;;;4.57;;
14019;SDS011;7085;51.428;6.796;2022-12-18T06:28:23;6.23;;;3.90;;
14019;SDS011;7085;51.428;6.796;2022-12-18T06:30:50;5.93;;;3.70;;
14019;SDS011;7085;51.428;6.796;2022-12-18T06:33:18;4.37;;;3.40;;
14019;SDS011;7085;51.428;6.796;2022-12-18T06:35:45;8.60;;;3.90;;
14019;SDS011;7085;51.428;6.796;2022-12-18T06:38:12;4.60;;;3.50;;
14019;SDS011;7085;51.428;6.796;2022-12-18T06:40:40;5.40;;;3.63;;
14019;SDS011;7085;51.428;6.796;2022-12-18T06:43:07;5.43;;;3.40;;
14019;SDS011;7085;51.428;6.796;2022-12-18T06:45:34;6.00;;;3.90;;
14019;SDS011;7085;51.428;6.796;2022-12-18T06:48:01;5.77;;;3.90;;
14019;SDS011;7085;51.428;6.796;2022-12-18T06:50:28;6.37;;;4.00;;
14019;SDS011;7085;51.428;6.796;2022-12-18T06:52:55;5.17;;;3.53;;
14019;SDS011;7085;51.428;6.796;2022-12-18T06:55:22;5.63;;;3.87;;
14019;SDS011;7085;51.428;6.796;2022-12-18T06:57:50;5.10;;;4.03;;
14019;SDS011;7085;51.428;6.796;2022-12-18T07:00:18;5.70;;;3.33;;
14019;SDS011;7085;51.428;6.796;2022-12-18T07:02:45;4.43;;;3.37;;
14019;SDS011;7085;51.428;6.796;2022-12-18T07:05:12;6.03;;;3.10;;
14019;SDS011;7085;51.428;6.796;2022-12-18T07:07:39;4.07;;;3.37;;
14019;SDS011;7085;51.428;6.796;2022-12-18T07:10:06;6.57;;;3.93;;
14019;SDS011;7085;51.428;6.796;2022-12-18T07:12:33;8.13;;;4.43;;
14019;SDS011;7085;51.428;6.796;2022-12-18T07:15:02;7.80;;;3.90;;
14019;SDS011;7085;51.428;6.796;2022-12-18T07:17:29;8.17;;;4.77;;
14019;SDS011;7085;51.428;6.796;2022-12-18T07:19:56;7.83;;;4.20;;
14019;SDS011;7085;51.428;6.796;2022-12-18T07:22:24;9.00;;;4.90;;
14019;SDS011;7085;51.428;6.796;2022-12-18T07:24:51;5.97;;;4.37;;
14019;SDS011;7085;51.428;6.796;2022-12-18T07:27:18;4.80;;;4.23;;
14019;SDS011;7085;51.428;6.796;2022-12-18T07:29:45;5.50;;;3.63;;
14019;SDS011;7085;51.428;6.796;2022-12-18T07:32:14;5.20;;;3.20;;
14019;SDS011;7085;51.428;6.796;2022-12-18T07:34:41;6.27;;;3.60;;
14019;SDS011;7085;51.428;6.796;2022-12-18T07:37:08;5.23;;;3.57;;
14019;SDS011;7085;51.428;6.796;2022-12-18T07:39:35;5.07;;;3.20;;
14019;SDS011;7085;51.428;6.796;2022-12-18T07:42:03;8.97;;;3.90;;
14019;SDS011;7085;51.428;6.796;2022-12-18T07:44:47;5.53;;;3.37;;
14019;SDS011;7085;51.428;6.796;2022-12-18T07:47:16;5.87;;;3.57;;
14019;SDS011;7085;51.428;6.796;2022-12-18T07:49:43;5.03;;;4.13;;
14019;SDS011;7085;51.428;6.796;2022-12-18T07:52:10;6.33;;;3.33;;
14019;SDS011;7085;51.428;6.796;2022-12-18T07:54:37;9.47;;;4.07;;
14019;SDS011;7085;51.428;6.796;2022-12-18T07:57:05;5.93;;;4.30;;
14019;SDS011;7085;51.428;6.796;2022-12-18T07:59:32;6.77;;;4.13;;
14019;SDS011;7085;51.428;6.796;2022-12-18T08:01:59;7.93;;;4.37;;
14019;SDS011;7085;51.428;6.796;2022-12-18T08:04:27;5.30;;;3.80;;
14019;SDS011;7085;51.428;6.796;2022-12-18T08:06:54;7.70;;;4.10;;
14019;SDS011;7085;51.428;6.796;2022-12-18T08:09:21;8.33;;;4.70;;
14019;SDS011;7085;51.428;6.796;2022-12-18T08:11:48;7.87;;;5.47;;
14019;SDS011;7085;51.428;6.796;2022-12-18T08:14:15;8.17;;;5.57;;
14019;SDS011;7085;51.428;6.796;2022-12-18T08:16:42;7.03;;;4.57;;
14019;SDS011;7085;51.428;6.796;2022-12-18T08:19:10;6.83;;;4.83;;
14019;SDS011;7085;51.428;6.796;2022-12-18T08:24:06;9.50;;;5.87;;
14019;SDS011;7085;51.428;6.796;2022-12-18T08:26:33;11.40;;;6.90;;
14019;SDS011;7085;51.428;6.796;2022-12-18T08:29:00;7.77;;;5.37;;
14019;SDS011;7085;51.428;6.796;2022-12-18T08:31:28;7.43;;;5.33;;
14019;SDS011;7085;51.428;6.796;2022-12-18T08:33:55;9.33;;;6.43;;
14019;SDS011;7085;51.428;6.796;2022-12-18T08:36:23;12.43;;;6.60;;
14019;SDS011;7085;51.428;6.796;2022-12-18T08:38:50;11.23;;;6.77;;
14019;SDS011;7085;51.428;6.796;2022-12-18T08:41:19;10.13;;;7.27;;
14019;SDS011;7085;51.428;6.796;2022-12-18T08:43:46;13.17;;;7.33;;
14019;SDS011;7085;51.428;6.796;2022-12-18T08:46:32;11.63;;;6.63;;
14019;SDS011;7085;51.428;6.796;2022-12-18T08:48:59;9.40;;;6.97;;
14019;SDS011;7085;51.428;6.796;2022-12-18T08:51:26;7.40;;;5.43;;
14019;SDS011;7085;51.428;6.796;2022-12-18T08:53:53;7.37;;;5.37;;
14019;SDS011;7085;51.428;6.796;2022-12-18T08:56:22;9.00;;;6.23;;
14019;SDS011;7085;51.428;6.796;2022-12-18T08:58:50;10.37;;;6.20;;
14019;SDS011;7085;51.428;6.796;2022-12-18T09:01:18;12.90;;;7.47;;
14019;SDS011;7085;51.428;6.796;2022-12-18T09:03:45;17.10;;;9.30;;
14019;SDS011;7085;51.428;6.796;2022-12-18T09:06:13;18.70;;;10.73;;
14019;SDS011;7085;51.428;6.796;2022-12-18T09:08:40;20.60;;;11.27;;
14019;SDS011;7085;51.428;6.796;2022-12-18T09:11:10;19.67;;;11.93;;
14019;SDS011;7085;51.428;6.796;2022-12-18T09:13:40;20.67;;;11.33;;
14019;SDS011;7085;51.428;6.796;2022-12-18T09:16:07;12.77;;;8.17;;
14019;SDS011;7085;51.428;6.796;2022-12-18T09:18:34;11.40;;;5.73;;
14019;SDS011;7085;51.428;6.796;2022-12-18T09:21:07;8.03;;;4.63;;
14019;SDS011;7085;51.428;6.796;2022-12-18T09:23:34;6.70;;;4.17;;
14019;SDS011;7085;51.428;6.796;2022-12-18T09:26:01;6.13;;;4.33;;
14019;SDS011;7085;51.428;6.796;2022-12-18T09:28:28;5.77;;;4.13;;
14019;SDS011;7085;51.428;6.796;2022-12-18T09:30:56;7.00;;;3.67;;
14019;SDS011;7085;51.428;6.796;2022-12-18T09:33:23;5.90;;;3.43;;
14019;SDS011;7085;51.428;6.796;2022-12-18T09:35:50;6.13;;;3.80;;
14019;SDS011;7085;51.428;6.796;2022-12-18T09:38:18;7.63;;;4.10;;
14019;SDS011;7085;51.428;6.796;2022-12-18T09:40:47;6.03;;;4.60;;
14019;SDS011;7085;51.428;6.796;2022-12-18T09:43:16;6.93;;;3.73;;
14019;SDS011;7085;51.428;6.796;2022-12-18T09:45:46;5.67;;;3.17;;
14019;SDS011;7085;51.428;6.796;2022-12-18T09:48:18;5.87;;;4.00;;
14019;SDS011;7085;51.428;6.796;2022-12-18T09:50:46;6.80;;;4.00;;
14019;SDS011;7085;51.428;6.796;2022-12-18T09:53:14;5.13;;;3.70;;
14019;SDS011;7085;51.428;6.796;2022-12-18T09:55:42;4.90;;;3.50;;
14019;SDS011;7085;51.428;6.796;2022-12-18T09:58:13;5.67;;;3.47;;
14019;SDS011;7085;51.428;6.796;2022-12-18T10:00:41;4.50;;;3.50;;
14019;SDS011;7085;51.428;6.796;2022-12-18T10:03:08;6.43;;;3.87;;
14019;SDS011;7085;51.428;6.796;2022-12-18T10:05:39;4.00;;;3.07;;
14019;SDS011;7085;51.428;6.796;2022-12-18T10:08:09;4.43;;;3.27;;
14019;SDS011;7085;51.428;6.796;2022-12-18T10:10:38;6.07;;;3.30;;
14019;SDS011;7085;51.428;6.796;2022-12-18T10:13:09;4.80;;;3.03;;
14019;SDS011;7085;51.428;6.796;2022-12-18T10:15:39;4.73;;;3.40;;
14019;SDS011;7085;51.428;6.796;2022-12-18T10:18:15;3.90;;;3.20;;
14019;SDS011;7085;51.428;6.796;2022-12-18T10:20:47;4.33;;;3.30;;
14019;SDS011;7085;51.428;6.796;2022-12-18T10:23:16;4.93;;;3.27;;
14019;SDS011;7085;51.428;6.796;2022-12-18T10:25:50;3.43;;;2.93;;
14019;SDS011;7085;51.428;6.796;2022-12-18T10:28:18;4.97;;;2.97;;
14019;SDS011;7085;51.428;6.796;2022-12-18T10:30:46;6.43;;;2.97;;
14019;SDS011;7085;51.428;6.796;2022-12-18T10:33:17;5.57;;;3.47;;
14019;SDS011;7085;51.428;6.796;2022-12-18T10:35:44;4.07;;;3.30;;
14019;SDS011;7085;51.428;6.796;2022-12-18T10:38:24;9.03;;;3.60;;
14019;SDS011;7085;51.428;6.796;2022-12-18T10:40:52;5.93;;;3.20;;
14019;SDS011;7085;51.428;6.796;2022-12-18T10:43:21;5.13;;;2.80;;
14019;SDS011;7085;51.428;6.796;2022-12-18T10:45:59;8.67;;;3.50;;
14019;SDS011;7085;51.428;6.796;2022-12-18T10:48:26;6.53;;;3.90;;
14019;SDS011;7085;51.428;6.796;2022-12-18T10:50:54;6.63;;;3.30;;
14019;SDS011;7085;51.428;6.796;2022-12-18T10:53:23;5.50;;;3.53;;
14019;SDS011;7085;51.428;6.796;2022-12-18T10:55:50;6.47;;;3.80;;
14019;SDS011;7085;51.428;6.796;2022-12-18T10:58:21;4.17;;;3.50;;
14019;SDS011;7085;51.428;6.796;2022-12-18T11:01:02;5.40;;;3.23;;
14019;SDS011;7085;51.428;6.796;2022-12-18T11:03:30;6.43;;;4.10;;
14019;SDS011;7085;51.428;6.796;2022-12-18T11:06:01;6.80;;;4.60;;
14019;SDS011;7085;51.428;6.796;2022-12-18T11:08:30;6.43;;;3.70;;
14019;SDS011;7085;51.428;6.796;2022-12-18T11:10:57;3.50;;;3.20;;
14019;SDS011;7085;51.428;6.796;2022-12-18T11:13:25;5.77;;;3.67;;
14019;SDS011;7085;51.428;6.796;2022-12-18T11:15:53;8.23;;;4.00;;
14019;SDS011;7085;51.428;6.796;2022-12-18T11:18:22;7.43;;;4.20;;
14019;SDS011;7085;51.428;6.796;2022-12-18T11:20:52;5.20;;;3.93;;
14019;SDS011;7085;51.428;6.796;2022-12-18T11:23:20;3.37;;;2.50;;
14019;SDS011;7085;51.428;6.796;2022-12-18T11:25:54;8.73;;;4.37;;
14019;SDS011;7085;51.428;6.796;2022-12-18T11:28:26;7.33;;;4.83;;
14019;SDS011;7085;51.428;6.796;2022-12-18T11:31:08;6.03;;;4.10;;
14019;SDS011;7085;51.428;6.796;2022-12-18T11:33:36;10.33;;;4.10;;
14019;SDS011;7085;51.428;6.796;2022-12-18T11:36:04;5.90;;;4.10;;
14019;SDS011;7085;51.428;6.796;2022-12-18T11:38:35;6.73;;;4.23;;
14019;SDS011;7085;51.428;6.796;2022-12-18T11:41:05;9.13;;;3.43;;
14019;SDS011;7085;51.428;6.796;2022-12-18T11:43:35;9.97;;;4.53;;
14019;SDS011;7085;51.428;6.796;2022-12-18T11:46:06;7.77;;;5.20;;
14019;SDS011;7085;51.428;6.796;2022-12-18T11:48:36;7.53;;;4.27;;
14019;SDS011;7085;51.428;6.796;2022-12-18T11:51:05;8.13;;;4.27;;
14019;SDS011;7085;51.428;6.796;2022-12-18T11:53:36;5.97;;;4.10;;
14019;SDS011;7085;51.428;6.796;2022-12-18T11:56:16;7.33;;;4.83;;
14019;SDS011;7085;51.428;6.796;2022-12-18T11:58:47;6.90;;;4.43;;
14019;SDS011;7085;51.428;6.796;2022-12-18T12:01:24;5.73;;;4.00;;
14019;SDS011;7085;51.428;6.796;2022-12-18T12:04:01;6.97;;;4.90;;
14019;SDS011;7085;51.428;6.796;2022-12-18T12:06:31;8.70;;;4.40;;
14019;SDS011;7085;51.428;6.796;2022-12-18T12:09:04;10.53;;;4.90;;
14019;SDS011;7085;51.428;6.796;2022-12-18T12:11:37;5.77;;;4.13;;
14019;SDS011;7085;51.428;6.796;2022-12-18T12:14:10;10.73;;;4.53;;
14019;SDS011;7085;51.428;6.796;2022-12-18T12:16:41;4.90;;;3.57;;
14019;SDS011;7085;51.428;6.796;2022-12-18T12:19:15;6.97;;;4.27;;
14019;SDS011;7085;51.428;6.796;2022-12-18T12:21:49;8.03;;;4.37;;
14019;SDS011;7085;51.428;6.796;2022-12-18T12:24:22;6.77;;;4.50;;
14019;SDS011;7085;51.428;6.796;2022-12-18T12:26:55;7.20;;;4.43;;
14019;SDS011;7085;51.428;6.796;2022-12-18T12:29:27;7.13;;;4.23;;
14019;SDS011;7085;51.428;6.796;2022-12-18T12:32:02;10.07;;;4.40;;
14019;SDS011;7085;51.428;6.796;2022-12-18T12:34:32;9.07;;;4.23;;
14019;SDS011;7085;51.428;6.796;2022-12-18T12:37:04;8.07;;;4.90;;
14019;SDS011;7085;51.428;6.796;2022-12-18T12:39:34;6.90;;;4.13;;
14019;SDS011;7085;51.428;6.796;2022-12-18T12:42:05;8.33;;;4.87;;
14019;SDS011;7085;51.428;6.796;2022-12-18T12:44:51;7.47;;;4.20;;
14019;SDS011;7085;51.428;6.796;2022-12-18T12:47:21;6.03;;;4.53;;
14019;SDS011;7085;51.428;6.796;2022-12-18T12:49:49;7.23;;;4.90;;
14019;SDS011;7085;51.428;6.796;2022-12-18T12:52:17;8.00;;;4.80;;
14019;SDS011;7085;51.428;6.796;2022-12-18T12:54:48;8.63;;;4.73;;
14019;SDS011;7085;51.428;6.796;2022-12-18T12:57:17;7.10;;;4.80;;
14019;SDS011;7085;51.428;6.796;2022-12-18T12:59:50;7.90;;;4.57;;
14019;SDS011;7085;51.428;6.796;2022-12-18T13:02:20;7.63;;;4.87;;
14019;SDS011;7085;51.428;6.796;2022-12-18T13:04:50;6.67;;;5.37;;
14019;SDS011;7085;51.428;6.796;2022-12-18T13:07:19;13.47;;;5.50;;
14019;SDS011;7085;51.428;6.796;2022-12-18T13:12:35;9.47;;;5.40;;
14019;SDS011;7085;51.428;6.796;2022-12-18T13:15:20;6.40;;;4.70;;
14019;SDS011;7085;51.428;6.796;2022-12-18T13:17:48;8.07;;;5.60;;
14019;SDS011;7085;51.428;6.796;2022-12-18T13:20:15;7.47;;;4.03;;
14019;SDS011;7085;51.428;6.796;2022-12-18T13:22:43;6.93;;;4.90;;
14019;SDS011;7085;51.428;6.796;2022-12-18T13:25:30;11.03;;;5.83;;
14019;SDS011;7085;51.428;6.796;2022-12-18T13:28:00;6.67;;;3.97;;
14019;SDS011;7085;51.428;6.796;2022-12-18T13:30:41;10.80;;;5.37;;
14019;SDS011;7085;51.428;6.796;2022-12-18T13:36:00;8.43;;;5.03;;
14019;SDS011;7085;51.428;6.796;2022-12-18T13:38:33;10.57;;;6.30;;
14019;SDS011;7085;51.428;6.796;2022-12-18T13:41:00;8.53;;;5.30;;
14019;SDS011;7085;51.428;6.796;2022-12-18T13:43:33;16.50;;;8.23;;
14019;SDS011;7085;51.428;6.796;2022-12-18T13:46:04;10.90;;;6.53;;
14019;SDS011;7085;51.428;6.796;2022-12-18T13:48:32;12.40;;;6.60;;
14019;SDS011;7085;51.428;6.796;2022-12-18T13:51:00;8.70;;;6.17;;
14019;SDS011;7085;51.428;6.796;2022-12-18T13:53:29;11.07;;;6.57;;
14019;SDS011;7085;51.428;6.796;2022-12-18T13:55:57;10.57;;;6.63;;
14019;SDS011;7085;51.428;6.796;2022-12-18T13:58:24;9.90;;;6.13;;
14019;SDS011;7085;51.428;6.796;2022-12-18T14:00:53;8.03;;;5.80;;
14019;SDS011;7085;51.428;6.796;2022-12-18T14:03:21;10.67;;;5.87;;
14019;SDS011;7085;51.428;6.796;2022-12-18T14:05:52;8.13;;;5.97;;
14019;SDS011;7085;51.428;6.796;2022-12-18T14:08:19;17.10;;;7.00;;
14019;SDS011;7085;51.428;6.796;2022-12-18T14:10:48;10.50;;;6.70;;
14019;SDS011;7085;51.428;6.796;2022-12-18T14:13:19;8.20;;;5.43;;
14019;SDS011;7085;51.428;6.796;2022-12-18T14:15:48;12.47;;;7.50;;
14019;SDS011;7085;51.428;6.796;2022-12-18T14:18:19;12.00;;;6.83;;
14019;SDS011;7085;51.428;6.796;2022-12-18T14:20:47;14.20;;;7.83;;
14019;SDS011;7085;51.428;6.796;2022-12-18T14:23:25;11.37;;;7.63;;
14019;SDS011;7085;51.428;6.796;2022-12-18T14:25:52;10.90;;;6.73;;
14019;SDS011;7085;51.428;6.796;2022-12-18T14:28:19;9.47;;;6.23;;
14019;SDS011;7085;51.428;6.796;2022-12-18T14:30:47;10.23;;;5.70;;
14019;SDS011;7085;51.428;6.796;2022-12-18T14:33:15;9.60;;;6.77;;
14019;SDS011;7085;51.428;6.796;2022-12-18T14:35:52;6.77;;;4.43;;
14019;SDS011;7085;51.428;6.796;2022-12-18T14:38:21;7.27;;;4.87;;
14019;SDS011;7085;51.428;6.796;2022-12-18T14:40:51;11.40;;;6.10;;
14019;SDS011;7085;51.428;6.796;2022-12-18T14:43:19;8.93;;;6.53;;
14019;SDS011;7085;51.428;6.796;2022-12-18T14:45:46;9.93;;;6.70;;
14019;SDS011;7085;51.428;6.796;2022-12-18T14:48:15;13.73;;;7.23;;
14019;SDS011;7085;51.428;6.796;2022-12-18T14:50:45;11.07;;;6.70;;
14019;SDS011;7085;51.428;6.796;2022-12-18T14:53:21;8.30;;;4.83;;
14019;SDS011;7085;51.428;6.796;2022-12-18T14:55:49;12.27;;;6.90;;
14019;SDS011;7085;51.428;6.796;2022-12-18T14:58:16;10.47;;;7.03;;
14019;SDS011;7085;51.428;6.796;2022-12-18T15:00:44;9.97;;;6.20;;
14019;SDS011;7085;51.428;6.796;2022-12-18T15:03:12;9.97;;;6.73;;
14019;SDS011;7085;51.428;6.796;2022-12-18T15:05:46;10.53;;;6.97;;
14019;SDS011;7085;51.428;6.796;2022-12-18T15:13:46;12.43;;;7.37;;
14019;SDS011;7085;51.428;6.796;2022-12-18T15:16:13;12.17;;;8.13;;
14019;SDS011;7085;51.428;6.796;2022-12-18T15:18:41;13.63;;;7.00;;
14019;SDS011;7085;51.428;6.796;2022-12-18T15:21:11;14.10;;;8.73;;
14019;SDS011;7085;51.428;6.796;2022-12-18T15:23:45;9.60;;;6.67;;
14019;SDS011;7085;51.428;6.796;2022-12-18T15:26:13;11.30;;;7.37;;
14019;SDS011;7085;51.428;6.796;2022-12-18T15:28:43;11.43;;;7.77;;